Time;durP1;ratioP1;P1;durP2;ratioP2;P2;SDS_P1;SDS_P2;PMS_P1;PMS_P2;Temp;Humidity;BMP_temperature;BMP_pressure;BME280_temperature;BME280_humidity;BME280_pressure;Samples;Min_cycle;Max_cycle;Signal;HPM_P1;HPM_P2
2022/06/20 00:02:20;;;;;;;;;;;22.10;99.90;;;;;;5110495;28;19980;-72
2022/06/20 00:04:47;;;;;;;;;;;22.10;99.90;;;;;;5107085;28;19911;-72
2022/06/20 00:07:13;;;;;;;;;;;22.10;99.90;;;;;;5106752;28;20250;-72
2022/06/20 00:09:39;;;;;;;;;;;22.10;99.90;;;;;;5106880;28;19908;-71
2022/06/20 00:12:05;;;;;;;;;;;22.10;99.90;;;;;;5107438;28;19907;-70
2022/06/20 00:14:31;;;;;;;;;;;22.00;99.90;;;;;;5105241;28;19915;-73
2022/06/20 00:16:56;;;;;;;;;;;21.90;99.90;;;;;;5099224;28;20406;-71
2022/06/20 00:19:22;;;;;;;;;;;21.80;99.90;;;;;;5107345;28;20006;-72
2022/06/20 00:21:47;;;;;;;;;;;21.80;99.90;;;;;;5109257;28;19907;-72
2022/06/20 00:24:13;;;;;;;;;;;21.80;99.90;;;;;;5108411;28;19907;-73
2022/06/20 00:26:39;;;;;;;;;;;21.70;99.90;;;;;;5101333;28;19912;-72
2022/06/20 00:29:06;;;;;;;;;;;21.70;99.90;;;;;;5101418;28;20262;-72
2022/06/20 00:31:32;;;;;;;;;;;21.70;99.90;;;;;;5109790;28;20292;-71
2022/06/20 00:33:57;;;;;;;;;;;21.70;99.90;;;;;;5098086;28;19916;-71
2022/06/20 00:36:23;;;;;;;;;;;21.60;99.90;;;;;;5092507;28;19916;-73
2022/06/20 00:38:51;;;;;;;;;;;21.50;99.90;;;;;;5100825;28;19972;-72
2022/06/20 00:41:19;;;;;;;;;;;21.60;99.90;;;;;;5104268;28;19926;-72
2022/06/20 00:43:47;;;;;;;;;;;21.60;99.90;;;;;;5100611;28;20006;-72
2022/06/20 00:46:24;;;;;;;;;;;21.50;99.90;;;;;;5103460;28;19908;-72
2022/06/20 00:48:54;;;;;;;;;;;21.50;99.90;;;;;;5099559;28;20483;-72
2022/06/20 00:51:22;;;;;;;;;;;21.50;99.90;;;;;;5108642;28;20373;-73
2022/06/20 00:53:52;;;;;;;;;;;21.50;99.90;;;;;;5110655;28;19904;-66
2022/06/20 00:56:21;;;;;;;;;;;22.00;99.90;;;;;;5106827;28;19920;-66
2022/06/20 00:58:51;;;;;;;;;;;22.50;99.90;;;;;;5104663;28;19911;-68
2022/06/20 01:01:19;;;;;;;;;;;22.80;99.90;;;;;;5110639;28;19915;-67
2022/06/20 01:03:53;;;;;;;;;;;23.20;99.90;;;;;;5109515;28;20357;-66
2022/06/20 01:06:28;;;;;;;;;;;23.30;99.90;;;;;;5107892;28;19953;-67
2022/06/20 01:08:58;;;;;;;;;;;23.40;99.90;;;;;;5110339;28;19912;-66
2022/06/20 01:11:27;;;;;;;;;;;23.50;99.90;;;;;;5105989;28;19908;-66
2022/06/20 01:13:53;;;;;;;;;;;23.50;99.90;;;;;;5108915;28;19916;-67
2022/06/20 01:16:18;;;;;;;;;;;23.50;99.90;;;;;;5109527;28;20384;-67
2022/06/20 01:18:46;;;;;;;;;;;23.30;99.90;;;;;;5106748;28;19916;-66
2022/06/20 01:21:23;;;;;;;;;;;23.40;99.90;;;;;;5114118;28;19904;-69
2022/06/20 01:24:07;;;;;;;;;;;23.40;99.90;;;;;;5108898;28;20011;-66
2022/06/20 01:26:46;;;;;;;;;;;23.40;99.90;;;;;;5105851;28;19916;-68
2022/06/20 01:29:12;;;;;;;;;;;23.30;99.90;;;;;;5112367;28;19908;-67
2022/06/20 01:31:45;;;;;;;;;;;23.50;99.90;;;;;;5109396;28;19915;-68
2022/06/20 01:34:13;;;;;;;;;;;23.60;99.90;;;;;;5107922;28;19957;-68
2022/06/20 01:39:25;;;;;;;;;;;23.60;99.90;;;;;;5108407;28;19953;-67
2022/06/20 01:44:40;;;;;;;;;;;23.40;99.90;;;;;;5106191;28;20304;-67
2022/06/20 01:47:06;;;;;;;;;;;23.10;99.90;;;;;;5106197;28;19949;-68
2022/06/20 01:49:32;;;;;;;;;;;23.00;99.90;;;;;;5110048;28;19907;-68
2022/06/20 01:52:01;;;;;;;;;;;23.10;99.90;;;;;;5106794;27;19958;-66
2022/06/20 01:54:30;;;;;;;;;;;23.10;99.90;;;;;;5109746;28;19917;-68
2022/06/20 01:56:56;;;;;;;;;;;23.10;99.90;;;;;;5107200;28;19950;-68
2022/06/20 01:59:24;;;;;;;;;;;23.00;99.90;;;;;;5111390;28;19954;-66
2022/06/20 02:01:51;;;;;;;;;;;22.90;99.90;;;;;;5111058;28;19947;-67
2022/06/20 02:04:18;;;;;;;;;;;22.80;99.90;;;;;;5113171;28;19911;-68
2022/06/20 02:06:44;;;;;;;;;;;22.70;99.90;;;;;;5111369;28;19908;-68
2022/06/20 02:09:13;;;;;;;;;;;22.60;99.90;;;;;;5111871;28;20606;-67
2022/06/20 02:11:41;;;;;;;;;;;22.50;99.90;;;;;;5109150;28;20440;-65
2022/06/20 02:14:13;;;;;;;;;;;22.30;99.90;;;;;;5108673;28;20391;-66
2022/06/20 02:16:41;;;;;;;;;;;22.30;99.90;;;;;;5106326;28;20005;-66
2022/06/20 02:19:08;;;;;;;;;;;22.30;99.90;;;;;;5108656;28;19934;-66
2022/06/20 02:21:35;;;;;;;;;;;22.30;99.90;;;;;;5112795;27;19908;-66
2022/06/20 02:24:03;;;;;;;;;;;22.40;99.90;;;;;;5108808;28;19915;-66
2022/06/20 02:26:29;;;;;;;;;;;22.30;99.90;;;;;;5105090;28;19914;-66
2022/06/20 02:28:58;;;;;;;;;;;22.30;99.90;;;;;;5117001;28;20387;-66
2022/06/20 02:31:24;;;;;;;;;;;22.40;99.90;;;;;;5117318;28;19906;-66
2022/06/20 02:33:50;;;;;;;;;;;22.40;99.90;;;;;;5116271;28;20280;-65
2022/06/20 02:36:16;;;;;;;;;;;22.30;99.90;;;;;;5116532;28;19912;-66
2022/06/20 02:38:43;;;;;;;;;;;22.30;99.90;;;;;;5107025;28;20006;-65
2022/06/20 02:41:09;;;;;;;;;;;22.30;99.90;;;;;;5099532;28;19907;-66
2022/06/20 02:43:40;;;;;;;;;;;22.40;99.90;;;;;;5105004;28;19911;-65
2022/06/20 02:46:10;;;;;;;;;;;22.40;99.90;;;;;;5111520;28;20256;-66
2022/06/20 02:48:37;;;;;;;;;;;22.40;99.90;;;;;;5111212;28;19979;-66
2022/06/20 02:51:04;;;;;;;;;;;22.40;99.90;;;;;;5113067;28;19904;-65
2022/06/20 02:53:38;;;;;;;;;;;22.50;99.90;;;;;;5106680;28;19915;-66
2022/06/20 02:56:05;;;;;;;;;;;22.60;99.90;;;;;;5106939;28;19908;-66
2022/06/20 02:58:32;;;;;;;;;;;22.60;99.90;;;;;;5111535;28;19964;-66
2022/06/20 03:01:07;;;;;;;;;;;22.50;99.90;;;;;;5108263;28;20398;-65
2022/06/20 03:03:33;;;;;;;;;;;22.40;99.90;;;;;;5107130;28;20064;-66
2022/06/20 03:05:59;;;;;;;;;;;22.40;99.90;;;;;;5106062;28;19948;-66
2022/06/20 03:08:25;;;;;;;;;;;22.40;99.90;;;;;;5110523;28;20358;-66
2022/06/20 03:10:52;;;;;;;;;;;22.40;99.90;;;;;;5109573;28;19914;-68
2022/06/20 03:13:19;;;;;;;;;;;22.30;99.90;;;;;;5112064;28;19926;-66
2022/06/20 03:15:45;;;;;;;;;;;22.30;99.90;;;;;;5106846;28;19908;-66
2022/06/20 03:18:13;;;;;;;;;;;22.40;99.90;;;;;;5111095;28;20423;-67
2022/06/20 03:20:39;;;;;;;;;;;22.50;99.90;;;;;;5110587;28;19908;-72
2022/06/20 03:23:10;;;;;;;;;;;22.30;99.90;;;;;;5106507;28;19934;-72
2022/06/20 03:25:36;;;;;;;;;;;21.90;99.90;;;;;;5105183;28;19961;-72
2022/06/20 03:28:02;;;;;;;;;;;21.50;99.90;;;;;;5110269;28;20294;-72
2022/06/20 03:30:30;;;;;;;;;;;21.10;99.90;;;;;;5119664;27;19914;-71
2022/06/20 03:32:57;;;;;;;;;;;20.90;99.90;;;;;;5110447;28;19986;-72
2022/06/20 03:35:22;;;;;;;;;;;20.90;99.90;;;;;;5108879;28;20334;-72
2022/06/20 03:37:48;;;;;;;;;;;20.80;99.90;;;;;;5109448;28;19911;-72
2022/06/20 03:40:14;;;;;;;;;;;20.70;99.90;;;;;;5112099;28;19979;-72
2022/06/20 03:42:40;;;;;;;;;;;20.60;99.90;;;;;;5109456;28;19911;-71
2022/06/20 03:45:07;;;;;;;;;;;20.60;99.90;;;;;;5101321;28;19908;-72
2022/06/20 03:47:35;;;;;;;;;;;20.60;99.90;;;;;;5116970;28;19926;-72
2022/06/20 03:50:04;;;;;;;;;;;20.60;99.90;;;;;;5117352;28;19974;-71
2022/06/20 03:52:52;;;;;;;;;;;20.70;99.90;;;;;;5123785;28;20007;-73
2022/06/20 03:55:20;;;;;;;;;;;20.60;99.90;;;;;;5106928;28;20408;-73
2022/06/20 03:57:46;;;;;;;;;;;20.60;99.90;;;;;;5114473;28;19951;-72
2022/06/20 04:00:35;;;;;;;;;;;20.50;99.90;;;;;;5114158;28;19918;-71
2022/06/20 04:03:20;;;;;;;;;;;20.60;99.90;;;;;;5098632;28;20006;-72
2022/06/20 04:05:52;;;;;;;;;;;20.60;99.90;;;;;;5107015;28;20442;-72
2022/06/20 04:11:18;;;;;;;;;;;20.60;99.90;;;;;;5109565;28;19915;-73
2022/06/20 04:13:59;;;;;;;;;;;20.70;99.90;;;;;;5102207;28;19908;-72
2022/06/20 04:16:24;;;;;;;;;;;20.70;99.90;;;;;;5109807;28;19914;-71
2022/06/20 04:18:59;;;;;;;;;;;20.80;99.90;;;;;;5109692;28;19904;-73
2022/06/20 04:21:31;;;;;;;;;;;20.80;99.90;;;;;;5109400;28;20392;-72
2022/06/20 04:24:12;;;;;;;;;;;20.90;99.90;;;;;;5109104;28;20269;-71
2022/06/20 04:26:44;;;;;;;;;;;21.00;99.90;;;;;;5105049;28;19933;-72
2022/06/20 04:29:19;;;;;;;;;;;21.10;99.90;;;;;;5104493;28;19962;-73
2022/06/20 04:31:49;;;;;;;;;;;21.10;99.90;;;;;;5106711;28;20311;-73
2022/06/20 04:34:15;;;;;;;;;;;21.20;99.90;;;;;;5109677;28;19919;-72
2022/06/20 04:36:53;;;;;;;;;;;21.30;99.90;;;;;;5108900;28;19916;-73
2022/06/20 04:39:25;;;;;;;;;;;21.20;99.90;;;;;;5098456;28;19916;-71
2022/06/20 04:41:50;;;;;;;;;;;21.20;99.90;;;;;;5102160;28;19962;-71
2022/06/20 04:44:19;;;;;;;;;;;21.30;99.90;;;;;;5103161;28;19943;-72
2022/06/20 04:46:48;;;;;;;;;;;21.30;99.90;;;;;;5102512;28;19908;-72
2022/06/20 04:49:15;;;;;;;;;;;21.40;99.90;;;;;;5106756;28;19912;-73
2022/06/20 04:51:42;;;;;;;;;;;21.50;99.90;;;;;;5099155;28;20438;-72
2022/06/20 04:54:12;;;;;;;;;;;21.60;99.90;;;;;;5109971;28;19911;-74
2022/06/20 04:56:39;;;;;;;;;;;21.70;99.90;;;;;;5100717;28;19927;-72
2022/06/20 04:59:06;;;;;;;;;;;21.80;99.90;;;;;;5104237;28;19915;-71
2022/06/20 05:01:33;;;;;;;;;;;21.80;99.90;;;;;;5108836;28;19967;-73
2022/06/20 05:04:06;;;;;;;;;;;21.90;99.90;;;;;;5103998;27;20403;-72
2022/06/20 05:06:32;;;;;;;;;;;22.10;99.90;;;;;;5101139;28;19915;-73
2022/06/20 05:09:05;;;;;;;;;;;22.10;99.90;;;;;;5099301;28;20384;-73
2022/06/20 05:11:36;;;;;;;;;;;22.20;99.90;;;;;;5102671;28;19943;-73
2022/06/20 05:14:07;;;;;;;;;;;22.30;99.90;;;;;;5111780;28;19966;-72
2022/06/20 05:16:35;;;;;;;;;;;22.40;99.90;;;;;;5103385;28;20283;-70
2022/06/20 05:19:12;;;;;;;;;;;22.50;99.90;;;;;;5110840;28;19908;-69
2022/06/20 05:21:42;;;;;;;;;;;22.60;99.90;;;;;;5109187;28;19959;-70
2022/06/20 05:24:13;;;;;;;;;;;22.70;99.90;;;;;;5112365;28;19904;-69
2022/06/20 05:26:40;;;;;;;;;;;22.90;99.90;;;;;;5103497;28;19915;-70
2022/06/20 05:29:07;;;;;;;;;;;23.00;99.90;;;;;;5111955;28;19919;-70
2022/06/20 05:31:36;;;;;;;;;;;23.10;99.90;;;;;;5113914;28;19903;-69
2022/06/20 05:34:13;;;;;;;;;;;23.20;99.90;;;;;;5114153;28;20285;-72
2022/06/20 05:36:42;;;;;;;;;;;23.30;99.90;;;;;;5114303;28;19904;-69
2022/06/20 05:39:15;;;;;;;;;;;23.40;99.90;;;;;;5113254;28;19934;-70
2022/06/20 05:41:41;;;;;;;;;;;23.50;99.90;;;;;;5109125;28;19912;-70
2022/06/20 05:44:13;;;;;;;;;;;23.60;99.90;;;;;;5104834;28;19922;-69
2022/06/20 05:46:41;;;;;;;;;;;23.70;99.90;;;;;;5105257;28;19914;-69
2022/06/20 05:49:09;;;;;;;;;;;23.70;99.90;;;;;;5108054;28;19908;-69
2022/06/20 05:51:36;;;;;;;;;;;23.70;99.90;;;;;;5113728;28;20388;-67
2022/06/20 05:54:09;;;;;;;;;;;23.80;99.90;;;;;;5107863;28;19911;-69
2022/06/20 05:56:43;;;;;;;;;;;23.90;99.90;;;;;;5095906;28;20035;-68
2022/06/20 05:59:25;;;;;;;;;;;24.00;99.90;;;;;;5105890;28;19912;-68
2022/06/20 06:01:52;;;;;;;;;;;24.10;99.90;;;;;;5110348;28;19912;-67
2022/06/20 06:04:17;;;;;;;;;;;24.30;99.90;;;;;;5112546;28;19908;-67
2022/06/20 06:06:45;;;;;;;;;;;24.40;99.90;;;;;;5113474;28;19983;-67
2022/06/20 06:09:16;;;;;;;;;;;24.50;99.90;;;;;;5113450;28;19998;-67
2022/06/20 06:12:00;;;;;;;;;;;24.60;99.90;;;;;;5111458;28;20365;-68
2022/06/20 06:14:26;;;;;;;;;;;24.60;99.90;;;;;;5110985;28;19915;-68
2022/06/20 06:16:56;;;;;;;;;;;24.70;99.90;;;;;;5109761;28;19908;-67
2022/06/20 06:19:21;;;;;;;;;;;24.70;99.90;;;;;;5111809;28;19959;-68
2022/06/20 06:21:48;;;;;;;;;;;24.80;99.90;;;;;;5111154;28;20015;-68
2022/06/20 06:24:16;;;;;;;;;;;24.80;99.90;;;;;;5110451;28;19953;-68
2022/06/20 06:26:43;;;;;;;;;;;24.90;99.90;;;;;;5111910;28;19929;-68
2022/06/20 06:29:21;;;;;;;;;;;24.90;99.90;;;;;;5108308;28;19939;-69
2022/06/20 06:31:49;;;;;;;;;;;25.00;99.90;;;;;;5111830;28;19989;-67
2022/06/20 06:34:32;;;;;;;;;;;25.20;99.90;;;;;;5112651;28;20343;-68
2022/06/20 06:37:00;;;;;;;;;;;25.20;99.90;;;;;;5092008;28;20513;-67
2022/06/20 06:39:33;;;;;;;;;;;25.30;99.90;;;;;;5121827;27;19914;-68
2022/06/20 06:42:01;;;;;;;;;;;25.40;99.90;;;;;;5107433;28;19944;-69
2022/06/20 06:44:33;;;;;;;;;;;25.50;99.90;;;;;;5103931;28;19970;-68
2022/06/20 06:47:00;;;;;;;;;;;25.70;99.90;;;;;;5106561;28;19903;-69
2022/06/20 06:49:31;;;;;;;;;;;25.70;99.90;;;;;;5110754;28;19911;-69
2022/06/20 06:52:03;;;;;;;;;;;25.70;99.90;;;;;;5111677;28;19934;-70
2022/06/20 06:54:46;;;;;;;;;;;25.80;99.90;;;;;;5109041;28;19919;-68
2022/06/20 06:57:16;;;;;;;;;;;25.80;99.90;;;;;;5111153;28;19911;-69
2022/06/20 06:59:52;;;;;;;;;;;25.80;99.90;;;;;;5112382;28;19935;-69
2022/06/20 07:02:21;;;;;;;;;;;25.80;99.90;;;;;;5111570;28;20002;-69
2022/06/20 07:04:47;;;;;;;;;;;25.70;99.90;;;;;;5111847;28;19912;-69
2022/06/20 07:07:25;;;;;;;;;;;25.60;99.90;;;;;;5110447;28;19923;-68
2022/06/20 07:09:52;;;;;;;;;;;25.70;99.90;;;;;;5113669;28;20373;-68
2022/06/20 07:12:38;;;;;;;;;;;25.60;99.90;;;;;;5106213;28;19935;-70
2022/06/20 07:15:03;;;;;;;;;;;25.60;99.90;;;;;;5097489;28;19935;-67
2022/06/20 07:17:33;;;;;;;;;;;25.60;99.90;;;;;;5098281;28;19908;-68
2022/06/20 07:20:00;;;;;;;;;;;25.60;99.90;;;;;;5097971;28;19908;-68
2022/06/20 07:22:25;;;;;;;;;;;25.60;99.90;;;;;;5102504;28;20723;-69
2022/06/20 07:24:52;;;;;;;;;;;25.70;99.90;;;;;;5101741;28;19939;-68
2022/06/20 07:27:33;;;;;;;;;;;25.70;99.90;;;;;;5095347;28;19919;-68
2022/06/20 07:30:03;;;;;;;;;;;25.70;99.90;;;;;;5106454;28;19914;-67
2022/06/20 07:32:35;;;;;;;;;;;25.80;99.90;;;;;;5102741;28;19907;-67
2022/06/20 07:35:05;;;;;;;;;;;25.90;99.90;;;;;;5111223;28;19912;-67
2022/06/20 07:37:34;;;;;;;;;;;25.80;99.90;;;;;;5111927;28;19956;-67
2022/06/20 07:40:02;;;;;;;;;;;25.70;99.90;;;;;;5110546;28;20419;-66
2022/06/20 07:42:27;;;;;;;;;;;25.80;99.90;;;;;;5107782;28;20028;-67
2022/06/20 07:44:59;;;;;;;;;;;25.80;99.90;;;;;;5107133;28;19945;-68
2022/06/20 07:47:30;;;;;;;;;;;25.70;99.90;;;;;;5108949;28;19908;-67
2022/06/20 07:49:58;;;;;;;;;;;25.70;99.90;;;;;;5111423;28;19914;-69
2022/06/20 07:53:01;;;;;;;;;;;25.70;99.90;;;;;;5111331;28;20483;-67
2022/06/20 07:55:29;;;;;;;;;;;25.70;99.90;;;;;;5055224;28;19928;-67
2022/06/20 07:57:58;;;;;;;;;;;25.80;99.90;;;;;;5063802;28;19915;-67
2022/06/20 08:00:28;;;;;;;;;;;25.60;99.90;;;;;;5089505;28;20037;-67
2022/06/20 08:02:53;;;;;;;;;;;25.70;99.90;;;;;;5102306;28;19912;-68
2022/06/20 08:05:23;;;;;;;;;;;25.60;99.90;;;;;;5111357;28;19923;-68
2022/06/20 08:07:57;;;;;;;;;;;25.60;99.90;;;;;;5109150;28;19914;-67
2022/06/20 08:10:34;;;;;;;;;;;25.60;99.90;;;;;;5111031;28;19910;-67
2022/06/20 08:13:00;;;;;;;;;;;25.60;99.90;;;;;;5108753;28;20376;-67
2022/06/20 08:15:28;;;;;;;;;;;25.70;99.90;;;;;;5111215;28;19904;-68
2022/06/20 08:17:54;;;;;;;;;;;25.70;99.90;;;;;;5108783;28;20470;-68
2022/06/20 08:20:22;;;;;;;;;;;25.70;99.90;;;;;;5109316;28;19907;-67
2022/06/20 08:22:50;;;;;;;;;;;25.80;99.90;;;;;;5106858;28;20136;-67
2022/06/20 08:25:22;;;;;;;;;;;25.90;99.90;;;;;;5112196;28;19907;-67
2022/06/20 08:27:54;;;;;;;;;;;26.00;99.90;;;;;;5111987;28;19994;-68
2022/06/20 08:30:35;;;;;;;;;;;26.00;99.90;;;;;;5115036;28;19907;-68
2022/06/20 08:33:01;;;;;;;;;;;26.00;99.90;;;;;;5110076;28;19912;-66
2022/06/20 08:35:32;;;;;;;;;;;26.00;99.90;;;;;;5115018;28;19965;-69
2022/06/20 08:38:03;;;;;;;;;;;26.10;99.90;;;;;;5094999;28;19911;-68
2022/06/20 08:40:30;;;;;;;;;;;26.10;99.90;;;;;;5094708;28;19904;-66
2022/06/20 08:42:56;;;;;;;;;;;26.00;99.90;;;;;;5098634;28;19911;-68
2022/06/20 08:45:40;;;;;;;;;;;25.90;99.90;;;;;;5113052;28;19914;-68
2022/06/20 08:48:24;;;;;;;;;;;25.90;99.90;;;;;;5110552;28;19911;-69
2022/06/20 08:50:59;;;;;;;;;;;25.80;99.90;;;;;;5113540;28;19935;-68
2022/06/20 08:53:31;;;;;;;;;;;25.80;99.90;;;;;;5107891;28;19933;-67
2022/06/20 08:56:09;;;;;;;;;;;25.90;99.90;;;;;;5113325;28;19943;-69
2022/06/20 08:58:43;;;;;;;;;;;26.00;99.90;;;;;;5111314;28;19907;-68
2022/06/20 09:01:21;;;;;;;;;;;25.90;99.90;;;;;;5116665;28;19904;-68
2022/06/20 09:04:09;;;;;;;;;;;25.90;99.90;;;;;;5116199;28;19927;-67
2022/06/20 09:06:35;;;;;;;;;;;25.80;99.90;;;;;;5118204;28;20342;-67
2022/06/20 09:09:00;;;;;;;;;;;25.90;99.90;;;;;;5113951;28;19947;-67
2022/06/20 09:11:44;;;;;;;;;;;26.00;99.90;;;;;;5116643;28;20337;-68
2022/06/20 09:14:10;;;;;;;;;;;26.10;99.90;;;;;;5116706;28;19930;-67
2022/06/20 09:16:54;;;;;;;;;;;26.20;99.90;;;;;;5115696;28;19904;-68
2022/06/20 09:19:19;;;;;;;;;;;26.00;99.90;;;;;;5113148;28;20269;-68
2022/06/20 09:21:45;;;;;;;;;;;25.80;99.90;;;;;;5112154;28;19916;-68
2022/06/20 09:24:10;;;;;;;;;;;25.80;99.90;;;;;;5111334;28;19953;-66
2022/06/20 09:26:36;;;;;;;;;;;25.70;99.90;;;;;;5113316;28;19904;-68
2022/06/20 09:29:04;;;;;;;;;;;25.70;99.90;;;;;;5112105;28;19912;-68
2022/06/20 09:31:30;;;;;;;;;;;25.60;99.90;;;;;;5112819;28;19915;-68
2022/06/20 09:33:55;;;;;;;;;;;25.40;99.90;;;;;;5112068;28;19912;-67
2022/06/20 09:36:24;;;;;;;;;;;25.50;99.90;;;;;;5112586;28;19994;-68
2022/06/20 09:38:50;;;;;;;;;;;25.70;99.90;;;;;;5111768;28;20392;-68
2022/06/20 09:41:21;;;;;;;;;;;25.80;99.90;;;;;;5108366;28;19908;-67
2022/06/20 09:43:56;;;;;;;;;;;25.90;99.90;;;;;;5107694;28;19912;-67
2022/06/20 09:46:34;;;;;;;;;;;26.00;99.90;;;;;;5113387;28;19904;-68
2022/06/20 09:48:59;;;;;;;;;;;25.90;99.90;;;;;;5109679;28;20365;-67
2022/06/20 09:51:25;;;;;;;;;;;25.70;99.90;;;;;;5108922;28;19955;-68
2022/06/20 09:53:50;;;;;;;;;;;25.60;99.90;;;;;;5092736;28;19912;-69
2022/06/20 09:56:24;;;;;;;;;;;25.70;99.90;;;;;;5106613;28;20283;-68
2022/06/20 09:58:56;;;;;;;;;;;25.70;99.90;;;;;;5111002;28;19916;-68
2022/06/20 10:01:39;;;;;;;;;;;25.60;99.90;;;;;;5111147;28;19908;-69
2022/06/20 10:04:23;;;;;;;;;;;25.30;99.90;;;;;;5109388;28;19911;-70
2022/06/20 10:06:49;;;;;;;;;;;25.50;99.90;;;;;;5107967;28;19987;-68
2022/06/20 10:09:15;;;;;;;;;;;25.50;99.90;;;;;;5112079;28;20377;-70
2022/06/20 10:11:59;;;;;;;;;;;25.60;99.90;;;;;;5113506;27;19904;-68
2022/06/20 10:14:32;;;;;;;;;;;25.80;99.90;;;;;;5109033;28;19962;-68
2022/06/20 10:17:01;;;;;;;;;;;25.70;99.90;;;;;;5107108;28;20007;-70
2022/06/20 10:19:45;;;;;;;;;;;25.50;99.90;;;;;;5106533;28;19951;-69
2022/06/20 10:22:25;;;;;;;;;;;25.60;99.90;;;;;;5111536;28;19942;-69
2022/06/20 10:25:03;;;;;;;;;;;25.60;99.90;;;;;;5100676;28;19923;-70
2022/06/20 10:27:29;;;;;;;;;;;25.60;99.90;;;;;;5109421;28;19939;-70
2022/06/20 10:30:06;;;;;;;;;;;25.40;99.90;;;;;;5122106;28;19908;-70
2022/06/20 10:32:40;;;;;;;;;;;25.50;99.90;;;;;;5111166;28;19914;-69
2022/06/20 10:35:14;;;;;;;;;;;25.70;99.90;;;;;;5108931;28;20311;-66
2022/06/20 10:37:42;;;;;;;;;;;25.90;99.90;;;;;;5102950;28;19975;-67
2022/06/20 10:40:26;;;;;;;;;;;25.90;99.90;;;;;;5100407;27;19912;-68
2022/06/20 10:42:52;;;;;;;;;;;25.90;99.90;;;;;;5102215;28;19925;-70
2022/06/20 10:45:31;;;;;;;;;;;25.70;99.90;;;;;;5096105;27;19916;-65
2022/06/20 10:48:04;;;;;;;;;;;25.80;99.90;;;;;;5100157;28;20307;-69
2022/06/20 10:50:48;;;;;;;;;;;25.70;99.90;;;;;;5102090;28;19994;-70
2022/06/20 10:53:24;;;;;;;;;;;25.80;99.90;;;;;;5105880;28;19908;-68
2022/06/20 10:55:55;;;;;;;;;;;25.70;99.90;;;;;;5112067;28;20049;-67
2022/06/20 10:58:20;;;;;;;;;;;25.70;99.90;;;;;;5112101;28;19926;-66
2022/06/20 11:00:55;;;;;;;;;;;25.80;99.90;;;;;;5101521;28;19911;-69
2022/06/20 11:03:26;;;;;;;;;;;25.80;99.90;;;;;;5097481;27;19920;-68
2022/06/20 11:05:55;;;;;;;;;;;26.00;99.90;;;;;;5098250;28;19927;-70
2022/06/20 11:08:32;;;;;;;;;;;26.10;99.90;;;;;;5099697;28;19998;-68
2022/06/20 11:11:04;;;;;;;;;;;26.20;99.90;;;;;;5091898;28;19938;-70
2022/06/20 11:13:30;;;;;;;;;;;26.10;99.90;;;;;;5098734;28;19930;-68
2022/06/20 11:16:02;;;;;;;;;;;26.10;99.90;;;;;;5098633;28;20289;-68
2022/06/20 11:18:30;;;;;;;;;;;26.00;99.90;;;;;;5106877;28;20382;-68
2022/06/20 11:21:11;;;;;;;;;;;25.90;99.90;;;;;;5110831;28;19911;-68
2022/06/20 11:23:48;;;;;;;;;;;25.90;99.90;;;;;;5104789;28;19920;-68
2022/06/20 11:26:18;;;;;;;;;;;26.00;99.90;;;;;;5111084;28;19914;-68
2022/06/20 11:28:56;;;;;;;;;;;26.20;99.90;;;;;;5108200;28;19911;-69
2022/06/20 11:31:22;;;;;;;;;;;26.10;99.90;;;;;;5111539;28;20396;-68
2022/06/20 11:34:03;;;;;;;;;;;26.10;99.90;;;;;;5109365;28;19912;-69
2022/06/20 11:36:35;;;;;;;;;;;26.30;99.90;;;;;;5112481;28;19904;-70
2022/06/20 11:39:12;;;;;;;;;;;26.20;99.90;;;;;;5109380;28;20430;-70
2022/06/20 11:41:52;;;;;;;;;;;26.40;99.90;;;;;;5111107;28;19910;-72
2022/06/20 11:44:36;;;;;;;;;;;26.60;99.90;;;;;;5111363;28;19960;-70
2022/06/20 11:47:08;;;;;;;;;;;26.40;99.90;;;;;;5109653;28;20049;-69
2022/06/20 11:49:33;;;;;;;;;;;26.60;99.90;;;;;;5110182;28;19925;-68
2022/06/20 11:51:59;;;;;;;;;;;26.60;99.90;;;;;;5111460;28;19949;-69
2022/06/20 11:54:33;;;;;;;;;;;26.70;99.90;;;;;;5106189;28;19914;-68
2022/06/20 11:56:59;;;;;;;;;;;26.70;99.90;;;;;;5108060;28;19908;-68
2022/06/20 11:59:37;;;;;;;;;;;26.50;99.90;;;;;;5115672;28;20032;-70
2022/06/20 12:02:21;;;;;;;;;;;26.60;99.90;;;;;;5095961;28;20406;-69
2022/06/20 12:05:06;;;;;;;;;;;26.60;99.90;;;;;;5110431;28;19907;-71
2022/06/20 12:07:43;;;;;;;;;;;26.60;99.90;;;;;;5096967;28;19934;-68
2022/06/20 12:10:27;;;;;;;;;;;26.70;99.90;;;;;;5111863;28;19933;-69
2022/06/20 12:13:04;;;;;;;;;;;26.70;99.90;;;;;;5116667;28;19995;-70
2022/06/20 12:15:39;;;;;;;;;;;26.60;99.90;;;;;;5111530;28;20443;-67
2022/06/20 12:18:23;;;;;;;;;;;26.70;99.90;;;;;;5112058;28;20357;-69
2022/06/20 12:23:41;;;;;;;;;;;26.60;99.90;;;;;;5107367;28;19915;-71
2022/06/20 12:26:10;;;;;;;;;;;26.70;99.90;;;;;;5107420;28;19923;-69
2022/06/20 12:28:38;;;;;;;;;;;26.60;99.90;;;;;;5105721;28;19953;-69
2022/06/20 12:31:11;;;;;;;;;;;26.60;99.90;;;;;;5109104;28;19914;-69
2022/06/20 12:33:49;;;;;;;;;;;26.80;99.90;;;;;;5105013;28;19922;-71
2022/06/20 12:36:32;;;;;;;;;;;26.40;99.90;;;;;;5101852;28;20398;-69
2022/06/20 12:39:16;;;;;;;;;;;26.40;99.90;;;;;;5102843;28;20011;-68
2022/06/20 12:41:44;;;;;;;;;;;26.50;99.90;;;;;;5097881;28;20395;-72
2022/06/20 12:44:18;;;;;;;;;;;26.50;99.90;;;;;;5110124;28;19908;-74
2022/06/20 12:47:10;;;;;;;;;;;26.60;99.90;;;;;;5109508;28;19918;-72
2022/06/20 12:49:46;;;;;;;;;;;26.70;99.90;;;;;;5109522;28;19908;-73
2022/06/20 12:52:25;;;;;;;;;;;26.50;99.90;;;;;;5110224;28;20359;-72
2022/06/20 12:54:56;;;;;;;;;;;26.20;99.90;;;;;;5104608;28;19908;-70
2022/06/20 12:57:32;;;;;;;;;;;26.30;99.90;;;;;;5108960;28;20411;-71
2022/06/20 12:59:57;;;;;;;;;;;26.60;99.90;;;;;;5094662;28;20011;-72
2022/06/20 13:02:23;;;;;;;;;;;26.70;99.90;;;;;;5093333;28;20456;-72
2022/06/20 13:05:07;;;;;;;;;;;26.80;99.90;;;;;;5106896;28;19952;-69
2022/06/20 13:07:41;;;;;;;;;;;26.80;99.90;;;;;;5107314;28;19908;-72
2022/06/20 13:10:34;;;;;;;;;;;26.40;99.90;;;;;;5113795;28;20077;-72
2022/06/20 13:13:04;;;;;;;;;;;26.60;99.90;;;;;;5106814;28;19908;-73
2022/06/20 13:15:39;;;;;;;;;;;26.70;99.90;;;;;;5106937;28;19911;-73
2022/06/20 13:18:19;;;;;;;;;;;26.60;99.90;;;;;;5108888;28;20002;-72
2022/06/20 13:20:49;;;;;;;;;;;26.50;99.90;;;;;;5115051;28;20329;-72
2022/06/20 13:23:14;;;;;;;;;;;26.70;99.90;;;;;;5114794;28;20372;-73
2022/06/20 13:25:56;;;;;;;;;;;26.70;99.90;;;;;;5108777;28;19939;-73
2022/06/20 13:28:27;;;;;;;;;;;26.80;99.90;;;;;;5107134;28;19907;-72
2022/06/20 13:31:02;;;;;;;;;;;26.60;99.90;;;;;;5111756;28;19922;-71
2022/06/20 13:33:46;;;;;;;;;;;26.70;99.90;;;;;;5111178;28;20003;-72
2022/06/20 13:36:12;;;;;;;;;;;26.40;99.90;;;;;;5112231;28;19903;-72
2022/06/20 13:38:37;;;;;;;;;;;26.50;99.90;;;;;;5106714;28;20394;-73
2022/06/20 13:41:18;;;;;;;;;;;26.60;99.90;;;;;;5111428;28;20270;-72
2022/06/20 13:44:03;;;;;;;;;;;26.50;99.90;;;;;;5110349;28;19912;-73
2022/06/20 13:46:45;;;;;;;;;;;26.70;99.90;;;;;;5110143;28;19947;-73
2022/06/20 13:49:20;;;;;;;;;;;26.50;99.90;;;;;;5107030;27;19907;-73
2022/06/20 13:51:46;;;;;;;;;;;26.40;99.90;;;;;;5108495;28;19904;-73
2022/06/20 13:54:31;;;;;;;;;;;26.50;99.90;;;;;;5112626;28;20384;-72
2022/06/20 13:57:15;;;;;;;;;;;26.80;99.90;;;;;;5109148;28;20017;-72
2022/06/20 13:59:47;;;;;;;;;;;26.70;99.90;;;;;;5113293;28;19954;-74
2022/06/20 14:02:31;;;;;;;;;;;26.70;99.90;;;;;;5112866;28;19908;-73
2022/06/20 14:05:07;;;;;;;;;;;26.70;99.90;;;;;;5110471;28;20413;-72
2022/06/20 14:07:34;;;;;;;;;;;26.70;99.90;;;;;;5109028;28;20337;-72
2022/06/20 14:10:00;;;;;;;;;;;26.60;99.90;;;;;;5112344;28;19903;-72
2022/06/20 14:12:29;;;;;;;;;;;26.80;99.90;;;;;;5112259;28;19915;-71
2022/06/20 14:14:57;;;;;;;;;;;26.90;99.90;;;;;;5113469;28;19903;-71
2022/06/20 14:17:24;;;;;;;;;;;27.00;99.90;;;;;;5110270;28;19957;-72
2022/06/20 14:19:56;;;;;;;;;;;27.00;99.90;;;;;;5111655;28;19919;-74
2022/06/20 14:22:24;;;;;;;;;;;26.90;99.90;;;;;;5108935;28;20289;-72
2022/06/20 14:24:51;;;;;;;;;;;27.00;99.90;;;;;;5111471;28;20384;-71
2022/06/20 14:27:17;;;;;;;;;;;27.10;99.90;;;;;;5100427;28;19947;-71
2022/06/20 14:29:47;;;;;;;;;;;27.10;99.90;;;;;;5109941;28;19961;-71
2022/06/20 14:32:16;;;;;;;;;;;26.80;99.90;;;;;;5109731;28;19908;-71
2022/06/20 14:37:44;;;;;;;;;;;27.20;99.90;;;;;;5113966;28;20002;-72
2022/06/20 14:40:21;;;;;;;;;;;27.30;99.90;;;;;;5107207;28;19998;-71
2022/06/20 14:42:55;;;;;;;;;;;27.50;99.90;;;;;;5113386;28;20365;-70
2022/06/20 14:45:26;;;;;;;;;;;27.60;99.90;;;;;;5112836;28;19916;-70
2022/06/20 14:47:55;;;;;;;;;;;27.60;99.90;;;;;;5113834;28;19915;-72
2022/06/20 14:50:41;;;;;;;;;;;27.80;99.90;;;;;;5111541;28;20395;-71
2022/06/20 14:53:31;;;;;;;;;;;27.90;99.90;;;;;;5105306;28;19915;-72
2022/06/20 14:55:57;;;;;;;;;;;27.90;99.90;;;;;;5104137;28;19911;-71